Fairfax, Missouri
Current Conditions -  °F | °C
As of 7:53 AM on Friday 24 Oct 2014 (Local Time) from KFNB Reporting Station
Haze Haze  
Wind Chill: 58°   Ceiling: Unl
Heat Index: 58°   Visibility: 4mi
Dew Point: 56°   Wind: 9mph
Humidity: 93%   Direction: 190°S
Pressure: 29.99"   Gusts: NA
Location:  40.34°N, 95.39°W
Report Text: KFNB 241253Z AUTO 19008KT 4SM BR CLR 14/13 A2999 RMK AO2 SLP152 T01440133
Loading
Personal Weather Stations






























Interactive Weather Map
Tropical Storm Tracking
New forecast layout! Learn more

10-Day Weather Forecast

Advertisements
Track Severe Weather on mobile